sensor_id;sensor_type;location;lat;lon;timestamp;P1;durP1;ratioP1;P2;durP2;ratioP2
23668;SDS011;12011;47.422;15.018;2023-04-24T00:00:13;1.88;;;1.87;;
23668;SDS011;12011;47.422;15.018;2023-04-24T00:02:47;1.94;;;1.94;;
23668;SDS011;12011;47.422;15.018;2023-04-24T00:05:17;1.87;;;1.87;;
23668;SDS011;12011;47.422;15.018;2023-04-24T00:07:51;1.82;;;1.82;;
23668;SDS011;12011;47.422;15.018;2023-04-24T00:10:24;1.89;;;1.89;;
23668;SDS011;12011;47.422;15.018;2023-04-24T00:12:54;1.69;;;1.69;;
23668;SDS011;12011;47.422;15.018;2023-04-24T00:15:27;1.81;;;1.81;;
23668;SDS011;12011;47.422;15.018;2023-04-24T00:17:58;1.68;;;1.68;;
23668;SDS011;12011;47.422;15.018;2023-04-24T00:20:30;1.71;;;1.71;;
23668;SDS011;12011;47.422;15.018;2023-04-24T00:23:19;1.89;;;1.89;;
23668;SDS011;12011;47.422;15.018;2023-04-24T00:26:02;2.13;;;2.12;;
23668;SDS011;12011;47.422;15.018;2023-04-24T00:28:37;2.15;;;2.14;;
23668;SDS011;12011;47.422;15.018;2023-04-24T00:31:12;2.27;;;2.26;;
23668;SDS011;12011;47.422;15.018;2023-04-24T00:33:44;2.61;;;2.60;;
23668;SDS011;12011;47.422;15.018;2023-04-24T00:36:32;2.47;;;2.47;;
23668;SDS011;12011;47.422;15.018;2023-04-24T00:39:05;2.13;;;2.13;;
23668;SDS011;12011;47.422;15.018;2023-04-24T00:41:37;2.06;;;2.06;;
23668;SDS011;12011;47.422;15.018;2023-04-24T00:44:13;2.19;;;2.19;;
23668;SDS011;12011;47.422;15.018;2023-04-24T00:46:46;2.32;;;2.32;;
23668;SDS011;12011;47.422;15.018;2023-04-24T00:49:21;2.16;;;2.16;;
23668;SDS011;12011;47.422;15.018;2023-04-24T00:51:52;2.26;;;2.26;;
23668;SDS011;12011;47.422;15.018;2023-04-24T00:54:30;2.44;;;2.44;;
23668;SDS011;12011;47.422;15.018;2023-04-24T00:57:02;2.41;;;2.41;;
23668;SDS011;12011;47.422;15.018;2023-04-24T00:59:37;2.33;;;2.33;;
23668;SDS011;12011;47.422;15.018;2023-04-24T01:02:10;2.53;;;2.53;;
23668;SDS011;12011;47.422;15.018;2023-04-24T01:04:41;2.26;;;2.26;;
23668;SDS011;12011;47.422;15.018;2023-04-24T01:07:13;2.31;;;2.29;;
23668;SDS011;12011;47.422;15.018;2023-04-24T01:09:47;2.16;;;2.16;;
23668;SDS011;12011;47.422;15.018;2023-04-24T01:12:28;2.16;;;2.16;;
23668;SDS011;12011;47.422;15.018;2023-04-24T01:15:00;2.24;;;2.24;;
23668;SDS011;12011;47.422;15.018;2023-04-24T01:17:34;2.24;;;2.24;;
23668;SDS011;12011;47.422;15.018;2023-04-24T01:20:09;2.19;;;2.18;;
23668;SDS011;12011;47.422;15.018;2023-04-24T01:22:46;2.43;;;2.41;;
23668;SDS011;12011;47.422;15.018;2023-04-24T01:25:20;2.62;;;2.61;;
23668;SDS011;12011;47.422;15.018;2023-04-24T01:28:01;2.30;;;2.30;;
23668;SDS011;12011;47.422;15.018;2023-04-24T01:30:39;2.19;;;2.19;;
23668;SDS011;12011;47.422;15.018;2023-04-24T01:33:16;2.33;;;2.33;;
23668;SDS011;12011;47.422;15.018;2023-04-24T01:35:52;2.59;;;2.59;;
23668;SDS011;12011;47.422;15.018;2023-04-24T01:38:29;2.13;;;2.13;;
23668;SDS011;12011;47.422;15.018;2023-04-24T01:40:59;2.56;;;2.55;;
23668;SDS011;12011;47.422;15.018;2023-04-24T01:43:35;2.68;;;2.68;;
23668;SDS011;12011;47.422;15.018;2023-04-24T01:46:16;2.60;;;2.60;;
23668;SDS011;12011;47.422;15.018;2023-04-24T01:48:47;2.89;;;2.87;;
23668;SDS011;12011;47.422;15.018;2023-04-24T01:51:23;2.56;;;2.56;;
23668;SDS011;12011;47.422;15.018;2023-04-24T01:53:58;2.64;;;2.64;;
23668;SDS011;12011;47.422;15.018;2023-04-24T01:56:35;2.70;;;2.69;;
23668;SDS011;12011;47.422;15.018;2023-04-24T01:59:12;2.23;;;2.22;;
23668;SDS011;12011;47.422;15.018;2023-04-24T02:01:47;2.44;;;2.43;;
23668;SDS011;12011;47.422;15.018;2023-04-24T02:04:19;2.36;;;2.36;;
23668;SDS011;12011;47.422;15.018;2023-04-24T02:06:53;2.38;;;2.38;;
23668;SDS011;12011;47.422;15.018;2023-04-24T02:09:40;2.54;;;2.54;;
23668;SDS011;12011;47.422;15.018;2023-04-24T02:12:21;2.35;;;2.35;;
23668;SDS011;12011;47.422;15.018;2023-04-24T02:14:56;2.51;;;2.51;;
23668;SDS011;12011;47.422;15.018;2023-04-24T02:17:31;2.53;;;2.53;;
23668;SDS011;12011;47.422;15.018;2023-04-24T02:20:09;2.77;;;2.77;;
23668;SDS011;12011;47.422;15.018;2023-04-24T02:22:49;2.44;;;2.44;;
23668;SDS011;12011;47.422;15.018;2023-04-24T02:25:22;2.70;;;2.70;;
23668;SDS011;12011;47.422;15.018;2023-04-24T02:27:59;2.44;;;2.44;;
23668;SDS011;12011;47.422;15.018;2023-04-24T02:30:32;2.65;;;2.65;;
23668;SDS011;12011;47.422;15.018;2023-04-24T02:33:03;2.74;;;2.74;;
23668;SDS011;12011;47.422;15.018;2023-04-24T02:35:33;2.67;;;2.67;;
23668;SDS011;12011;47.422;15.018;2023-04-24T02:38:10;2.75;;;2.75;;
23668;SDS011;12011;47.422;15.018;2023-04-24T02:40:51;2.89;;;2.88;;
23668;SDS011;12011;47.422;15.018;2023-04-24T02:43:22;2.82;;;2.82;;
23668;SDS011;12011;47.422;15.018;2023-04-24T02:45:54;2.77;;;2.76;;
23668;SDS011;12011;47.422;15.018;2023-04-24T02:48:31;2.78;;;2.77;;
23668;SDS011;12011;47.422;15.018;2023-04-24T02:51:04;2.85;;;2.85;;
23668;SDS011;12011;47.422;15.018;2023-04-24T02:53:38;2.61;;;2.61;;
23668;SDS011;12011;47.422;15.018;2023-04-24T02:56:10;2.55;;;2.55;;
23668;SDS011;12011;47.422;15.018;2023-04-24T02:58:49;2.52;;;2.52;;
23668;SDS011;12011;47.422;15.018;2023-04-24T03:01:19;2.94;;;2.94;;
23668;SDS011;12011;47.422;15.018;2023-04-24T03:03:52;2.67;;;2.67;;
23668;SDS011;12011;47.422;15.018;2023-04-24T03:06:25;2.51;;;2.51;;
23668;SDS011;12011;47.422;15.018;2023-04-24T03:08:58;2.65;;;2.65;;
23668;SDS011;12011;47.422;15.018;2023-04-24T03:11:34;2.74;;;2.74;;
23668;SDS011;12011;47.422;15.018;2023-04-24T03:14:07;2.84;;;2.84;;
23668;SDS011;12011;47.422;15.018;2023-04-24T03:16:38;2.78;;;2.78;;
23668;SDS011;12011;47.422;15.018;2023-04-24T03:19:15;2.76;;;2.76;;
23668;SDS011;12011;47.422;15.018;2023-04-24T03:21:56;3.02;;;3.02;;
23668;SDS011;12011;47.422;15.018;2023-04-24T03:24:32;2.84;;;2.84;;
23668;SDS011;12011;47.422;15.018;2023-04-24T03:27:18;2.78;;;2.78;;
23668;SDS011;12011;47.422;15.018;2023-04-24T03:30:00;2.63;;;2.63;;
23668;SDS011;12011;47.422;15.018;2023-04-24T03:32:42;2.77;;;2.77;;
23668;SDS011;12011;47.422;15.018;2023-04-24T03:35:20;2.47;;;2.47;;
23668;SDS011;12011;47.422;15.018;2023-04-24T03:37:57;2.67;;;2.67;;
23668;SDS011;12011;47.422;15.018;2023-04-24T03:40:50;2.72;;;2.72;;
23668;SDS011;12011;47.422;15.018;2023-04-24T03:43:43;3.05;;;3.05;;
23668;SDS011;12011;47.422;15.018;2023-04-24T03:46:14;2.93;;;2.92;;
23668;SDS011;12011;47.422;15.018;2023-04-24T03:48:52;3.22;;;3.22;;
23668;SDS011;12011;47.422;15.018;2023-04-24T03:51:28;3.27;;;3.27;;
23668;SDS011;12011;47.422;15.018;2023-04-24T03:54:11;3.00;;;3.00;;
23668;SDS011;12011;47.422;15.018;2023-04-24T03:56:41;3.30;;;3.29;;
23668;SDS011;12011;47.422;15.018;2023-04-24T03:59:18;2.79;;;2.79;;
23668;SDS011;12011;47.422;15.018;2023-04-24T04:02:21;2.78;;;2.78;;
23668;SDS011;12011;47.422;15.018;2023-04-24T04:04:55;3.05;;;3.05;;
23668;SDS011;12011;47.422;15.018;2023-04-24T04:07:31;2.58;;;2.58;;
23668;SDS011;12011;47.422;15.018;2023-04-24T04:10:12;2.66;;;2.66;;
23668;SDS011;12011;47.422;15.018;2023-04-24T04:12:50;2.80;;;2.80;;
23668;SDS011;12011;47.422;15.018;2023-04-24T04:15:35;3.34;;;3.33;;
23668;SDS011;12011;47.422;15.018;2023-04-24T04:18:11;3.22;;;3.19;;
23668;SDS011;12011;47.422;15.018;2023-04-24T04:20:42;2.92;;;2.90;;
23668;SDS011;12011;47.422;15.018;2023-04-24T04:23:22;2.92;;;2.92;;
23668;SDS011;12011;47.422;15.018;2023-04-24T04:26:20;3.86;;;3.86;;
23668;SDS011;12011;47.422;15.018;2023-04-24T04:29:04;3.77;;;3.76;;
23668;SDS011;12011;47.422;15.018;2023-04-24T04:31:41;3.40;;;3.40;;
23668;SDS011;12011;47.422;15.018;2023-04-24T04:34:14;3.12;;;3.12;;
23668;SDS011;12011;47.422;15.018;2023-04-24T04:36:53;3.44;;;3.44;;
23668;SDS011;12011;47.422;15.018;2023-04-24T04:39:46;3.63;;;3.63;;
23668;SDS011;12011;47.422;15.018;2023-04-24T04:42:23;3.44;;;3.43;;
23668;SDS011;12011;47.422;15.018;2023-04-24T04:44:59;3.48;;;3.47;;
23668;SDS011;12011;47.422;15.018;2023-04-24T04:47:48;3.67;;;3.63;;
23668;SDS011;12011;47.422;15.018;2023-04-24T04:50:20;3.32;;;3.30;;
23668;SDS011;12011;47.422;15.018;2023-04-24T04:53:00;3.65;;;3.65;;
23668;SDS011;12011;47.422;15.018;2023-04-24T04:55:38;3.57;;;3.57;;
23668;SDS011;12011;47.422;15.018;2023-04-24T04:58:16;3.69;;;3.69;;
23668;SDS011;12011;47.422;15.018;2023-04-24T05:00:55;3.65;;;3.65;;
23668;SDS011;12011;47.422;15.018;2023-04-24T05:03:37;3.42;;;3.42;;
23668;SDS011;12011;47.422;15.018;2023-04-24T05:06:26;3.49;;;3.49;;
23668;SDS011;12011;47.422;15.018;2023-04-24T05:09:17;3.80;;;3.80;;
23668;SDS011;12011;47.422;15.018;2023-04-24T05:11:53;3.72;;;3.72;;
23668;SDS011;12011;47.422;15.018;2023-04-24T05:14:24;3.60;;;3.60;;
23668;SDS011;12011;47.422;15.018;2023-04-24T05:16:55;4.06;;;4.05;;
23668;SDS011;12011;47.422;15.018;2023-04-24T05:19:28;4.35;;;4.34;;
23668;SDS011;12011;47.422;15.018;2023-04-24T05:21:59;5.03;;;5.03;;
23668;SDS011;12011;47.422;15.018;2023-04-24T05:24:30;4.64;;;4.64;;
23668;SDS011;12011;47.422;15.018;2023-04-24T05:27:06;4.24;;;4.22;;
23668;SDS011;12011;47.422;15.018;2023-04-24T05:29:39;4.18;;;4.14;;
23668;SDS011;12011;47.422;15.018;2023-04-24T05:32:09;4.03;;;3.99;;
23668;SDS011;12011;47.422;15.018;2023-04-24T05:34:41;3.97;;;3.95;;
23668;SDS011;12011;47.422;15.018;2023-04-24T05:37:12;4.19;;;4.19;;
23668;SDS011;12011;47.422;15.018;2023-04-24T05:39:42;4.47;;;4.47;;
23668;SDS011;12011;47.422;15.018;2023-04-24T05:42:12;4.55;;;4.55;;
23668;SDS011;12011;47.422;15.018;2023-04-24T05:44:42;4.41;;;4.41;;
23668;SDS011;12011;47.422;15.018;2023-04-24T05:47:11;4.13;;;4.13;;
23668;SDS011;12011;47.422;15.018;2023-04-24T05:49:44;4.41;;;4.37;;
23668;SDS011;12011;47.422;15.018;2023-04-24T05:52:14;4.11;;;4.11;;
23668;SDS011;12011;47.422;15.018;2023-04-24T05:54:44;4.13;;;4.13;;
23668;SDS011;12011;47.422;15.018;2023-04-24T05:57:18;3.87;;;3.87;;
23668;SDS011;12011;47.422;15.018;2023-04-24T05:59:53;4.12;;;4.09;;
23668;SDS011;12011;47.422;15.018;2023-04-24T06:02:24;3.48;;;3.48;;
23668;SDS011;12011;47.422;15.018;2023-04-24T06:05:01;4.28;;;4.27;;
23668;SDS011;12011;47.422;15.018;2023-04-24T06:07:31;3.94;;;3.92;;
23668;SDS011;12011;47.422;15.018;2023-04-24T06:10:04;4.21;;;4.21;;
23668;SDS011;12011;47.422;15.018;2023-04-24T06:12:40;3.98;;;3.97;;
23668;SDS011;12011;47.422;15.018;2023-04-24T06:15:15;4.29;;;4.29;;
23668;SDS011;12011;47.422;15.018;2023-04-24T06:18:05;4.21;;;4.20;;
23668;SDS011;12011;47.422;15.018;2023-04-24T06:20:38;4.30;;;4.26;;
23668;SDS011;12011;47.422;15.018;2023-04-24T06:23:09;3.97;;;3.93;;
23668;SDS011;12011;47.422;15.018;2023-04-24T06:25:38;4.13;;;4.09;;
23668;SDS011;12011;47.422;15.018;2023-04-24T06:28:11;4.73;;;4.67;;
23668;SDS011;12011;47.422;15.018;2023-04-24T06:30:40;4.68;;;4.67;;
23668;SDS011;12011;47.422;15.018;2023-04-24T06:33:11;4.83;;;4.82;;
23668;SDS011;12011;47.422;15.018;2023-04-24T06:35:44;6.64;;;6.62;;
23668;SDS011;12011;47.422;15.018;2023-04-24T06:38:14;7.76;;;7.72;;
23668;SDS011;12011;47.422;15.018;2023-04-24T06:40:43;8.92;;;8.92;;
23668;SDS011;12011;47.422;15.018;2023-04-24T06:43:13;6.89;;;6.89;;
23668;SDS011;12011;47.422;15.018;2023-04-24T06:45:43;5.82;;;5.82;;
23668;SDS011;12011;47.422;15.018;2023-04-24T06:48:13;6.64;;;6.61;;
23668;SDS011;12011;47.422;15.018;2023-04-24T06:50:45;6.23;;;6.21;;
23668;SDS011;12011;47.422;15.018;2023-04-24T06:53:15;6.05;;;6.04;;
23668;SDS011;12011;47.422;15.018;2023-04-24T06:55:44;6.42;;;6.40;;
23668;SDS011;12011;47.422;15.018;2023-04-24T06:58:14;10.78;;;10.71;;
23668;SDS011;12011;47.422;15.018;2023-04-24T07:00:43;6.40;;;6.39;;
23668;SDS011;12011;47.422;15.018;2023-04-24T07:03:13;5.64;;;5.64;;
23668;SDS011;12011;47.422;15.018;2023-04-24T07:05:45;7.72;;;7.72;;
23668;SDS011;12011;47.422;15.018;2023-04-24T07:08:14;7.15;;;7.15;;
23668;SDS011;12011;47.422;15.018;2023-04-24T07:10:46;7.38;;;7.38;;
23668;SDS011;12011;47.422;15.018;2023-04-24T07:13:17;7.42;;;7.39;;
23668;SDS011;12011;47.422;15.018;2023-04-24T07:15:46;13.40;;;13.35;;
23668;SDS011;12011;47.422;15.018;2023-04-24T07:18:19;11.87;;;11.76;;
23668;SDS011;12011;47.422;15.018;2023-04-24T07:20:52;12.86;;;12.77;;
23668;SDS011;12011;47.422;15.018;2023-04-24T07:23:22;9.08;;;9.03;;
23668;SDS011;12011;47.422;15.018;2023-04-24T07:25:51;6.88;;;6.86;;
23668;SDS011;12011;47.422;15.018;2023-04-24T07:28:21;4.64;;;4.61;;
23668;SDS011;12011;47.422;15.018;2023-04-24T07:30:51;3.94;;;3.92;;
23668;SDS011;12011;47.422;15.018;2023-04-24T07:33:20;3.44;;;3.43;;
23668;SDS011;12011;47.422;15.018;2023-04-24T07:35:52;2.99;;;2.98;;
23668;SDS011;12011;47.422;15.018;2023-04-24T07:38:22;2.67;;;2.67;;
23668;SDS011;12011;47.422;15.018;2023-04-24T07:40:52;1.50;;;1.50;;
23668;SDS011;12011;47.422;15.018;2023-04-24T07:43:21;1.25;;;1.25;;
23668;SDS011;12011;47.422;15.018;2023-04-24T07:45:51;1.15;;;1.15;;
23668;SDS011;12011;47.422;15.018;2023-04-24T07:48:21;1.17;;;1.17;;
23668;SDS011;12011;47.422;15.018;2023-04-24T07:50:54;1.15;;;1.15;;
23668;SDS011;12011;47.422;15.018;2023-04-24T07:53:24;1.01;;;1.01;;
23668;SDS011;12011;47.422;15.018;2023-04-24T07:55:53;0.69;;;0.69;;
23668;SDS011;12011;47.422;15.018;2023-04-24T07:58:23;1.15;;;1.15;;
23668;SDS011;12011;47.422;15.018;2023-04-24T08:00:53;1.06;;;1.06;;
23668;SDS011;12011;47.422;15.018;2023-04-24T08:03:23;1.04;;;1.04;;
23668;SDS011;12011;47.422;15.018;2023-04-24T08:05:55;1.46;;;1.46;;
23668;SDS011;12011;47.422;15.018;2023-04-24T08:08:24;1.16;;;1.14;;
23668;SDS011;12011;47.422;15.018;2023-04-24T08:10:54;1.13;;;1.11;;
23668;SDS011;12011;47.422;15.018;2023-04-24T08:13:23;0.93;;;0.91;;
23668;SDS011;12011;47.422;15.018;2023-04-24T08:15:53;0.63;;;0.61;;
23668;SDS011;12011;47.422;15.018;2023-04-24T08:18:22;0.50;;;0.49;;
23668;SDS011;12011;47.422;15.018;2023-04-24T08:20:55;0.46;;;0.45;;
23668;SDS011;12011;47.422;15.018;2023-04-24T08:23:26;0.46;;;0.45;;
23668;SDS011;12011;47.422;15.018;2023-04-24T08:25:56;0.33;;;0.33;;
23668;SDS011;12011;47.422;15.018;2023-04-24T08:28:26;0.32;;;0.32;;
23668;SDS011;12011;47.422;15.018;2023-04-24T08:30:55;0.29;;;0.29;;
23668;SDS011;12011;47.422;15.018;2023-04-24T08:33:25;0.35;;;0.35;;
23668;SDS011;12011;47.422;15.018;2023-04-24T08:36:02;0.37;;;0.37;;
23668;SDS011;12011;47.422;15.018;2023-04-24T08:38:32;0.27;;;0.27;;
23668;SDS011;12011;47.422;15.018;2023-04-24T08:41:02;0.32;;;0.31;;
23668;SDS011;12011;47.422;15.018;2023-04-24T08:43:33;0.42;;;0.42;;
23668;SDS011;12011;47.422;15.018;2023-04-24T08:46:15;0.39;;;0.39;;
23668;SDS011;12011;47.422;15.018;2023-04-24T08:48:45;0.30;;;0.30;;
23668;SDS011;12011;47.422;15.018;2023-04-24T08:51:17;0.41;;;0.41;;
23668;SDS011;12011;47.422;15.018;2023-04-24T08:53:48;0.35;;;0.35;;
23668;SDS011;12011;47.422;15.018;2023-04-24T08:56:20;0.34;;;0.34;;
23668;SDS011;12011;47.422;15.018;2023-04-24T08:58:51;0.43;;;0.43;;
23668;SDS011;12011;47.422;15.018;2023-04-24T09:01:22;0.26;;;0.26;;
23668;SDS011;12011;47.422;15.018;2023-04-24T09:03:55;0.35;;;0.35;;
23668;SDS011;12011;47.422;15.018;2023-04-24T09:06:27;0.20;;;0.19;;
23668;SDS011;12011;47.422;15.018;2023-04-24T09:08:59;0.27;;;0.26;;
23668;SDS011;12011;47.422;15.018;2023-04-24T09:11:31;0.28;;;0.28;;
23668;SDS011;12011;47.422;15.018;2023-04-24T09:14:01;0.26;;;0.26;;
23668;SDS011;12011;47.422;15.018;2023-04-24T09:16:31;0.23;;;0.23;;
23668;SDS011;12011;47.422;15.018;2023-04-24T09:19:01;0.25;;;0.24;;
23668;SDS011;12011;47.422;15.018;2023-04-24T09:21:34;0.24;;;0.24;;
23668;SDS011;12011;47.422;15.018;2023-04-24T09:24:06;0.29;;;0.28;;
23668;SDS011;12011;47.422;15.018;2023-04-24T09:26:45;0.38;;;0.38;;
23668;SDS011;12011;47.422;15.018;2023-04-24T09:29:17;0.26;;;0.26;;
23668;SDS011;12011;47.422;15.018;2023-04-24T09:31:47;0.15;;;0.15;;
23668;SDS011;12011;47.422;15.018;2023-04-24T09:34:20;0.25;;;0.25;;
23668;SDS011;12011;47.422;15.018;2023-04-24T09:36:54;0.37;;;0.37;;
23668;SDS011;12011;47.422;15.018;2023-04-24T09:39:24;0.26;;;0.26;;
23668;SDS011;12011;47.422;15.018;2023-04-24T09:41:54;0.23;;;0.23;;
23668;SDS011;12011;47.422;15.018;2023-04-24T09:44:29;0.18;;;0.18;;
23668;SDS011;12011;47.422;15.018;2023-04-24T09:46:59;0.25;;;0.25;;
23668;SDS011;12011;47.422;15.018;2023-04-24T09:49:36;0.18;;;0.18;;
23668;SDS011;12011;47.422;15.018;2023-04-24T09:52:10;0.26;;;0.26;;
23668;SDS011;12011;47.422;15.018;2023-04-24T09:54:40;0.21;;;0.21;;
23668;SDS011;12011;47.422;15.018;2023-04-24T09:57:09;0.26;;;0.26;;
23668;SDS011;12011;47.422;15.018;2023-04-24T09:59:42;0.39;;;0.39;;
23668;SDS011;12011;47.422;15.018;2023-04-24T10:02:17;0.33;;;0.33;;
23668;SDS011;12011;47.422;15.018;2023-04-24T10:04:54;0.25;;;0.25;;
23668;SDS011;12011;47.422;15.018;2023-04-24T10:07:28;0.20;;;0.20;;
23668;SDS011;12011;47.422;15.018;2023-04-24T10:09:57;0.17;;;0.17;;
23668;SDS011;12011;47.422;15.018;2023-04-24T10:12:31;0.18;;;0.18;;
23668;SDS011;12011;47.422;15.018;2023-04-24T10:15:05;0.21;;;0.21;;
23668;SDS011;12011;47.422;15.018;2023-04-24T10:17:48;0.23;;;0.23;;
23668;SDS011;12011;47.422;15.018;2023-04-24T10:20:20;0.23;;;0.23;;
23668;SDS011;12011;47.422;15.018;2023-04-24T10:22:57;0.33;;;0.33;;
23668;SDS011;12011;47.422;15.018;2023-04-24T10:25:30;0.24;;;0.23;;
23668;SDS011;12011;47.422;15.018;2023-04-24T10:28:02;0.21;;;0.21;;
23668;SDS011;12011;47.422;15.018;2023-04-24T10:30:37;0.17;;;0.17;;
23668;SDS011;12011;47.422;15.018;2023-04-24T10:33:13;0.27;;;0.27;;
23668;SDS011;12011;47.422;15.018;2023-04-24T10:35:48;0.21;;;0.21;;
23668;SDS011;12011;47.422;15.018;2023-04-24T10:38:34;0.25;;;0.25;;
23668;SDS011;12011;47.422;15.018;2023-04-24T10:41:11;0.13;;;0.12;;
23668;SDS011;12011;47.422;15.018;2023-04-24T10:43:47;0.30;;;0.30;;
23668;SDS011;12011;47.422;15.018;2023-04-24T10:46:22;0.20;;;0.20;;
23668;SDS011;12011;47.422;15.018;2023-04-24T10:49:05;0.11;;;0.11;;
23668;SDS011;12011;47.422;15.018;2023-04-24T10:51:45;0.07;;;0.07;;
23668;SDS011;12011;47.422;15.018;2023-04-24T10:54:26;0.16;;;0.16;;
23668;SDS011;12011;47.422;15.018;2023-04-24T10:57:25;0.10;;;0.10;;
23668;SDS011;12011;47.422;15.018;2023-04-24T11:00:12;0.10;;;0.09;;
23668;SDS011;12011;47.422;15.018;2023-04-24T11:02:50;0.08;;;0.07;;
23668;SDS011;12011;47.422;15.018;2023-04-24T11:08:30;0.07;;;0.07;;
23668;SDS011;12011;47.422;15.018;2023-04-24T11:11:13;0.11;;;0.11;;
23668;SDS011;12011;47.422;15.018;2023-04-24T11:14:01;0.15;;;0.15;;
23668;SDS011;12011;47.422;15.018;2023-04-24T11:16:51;0.08;;;0.08;;
23668;SDS011;12011;47.422;15.018;2023-04-24T11:19:24;0.06;;;0.06;;
23668;SDS011;12011;47.422;15.018;2023-04-24T11:22:02;0.06;;;0.06;;
23668;SDS011;12011;47.422;15.018;2023-04-24T11:24:50;0.06;;;0.06;;
23668;SDS011;12011;47.422;15.018;2023-04-24T11:27:38;0.11;;;0.10;;
23668;SDS011;12011;47.422;15.018;2023-04-24T11:30:12;0.12;;;0.12;;
23668;SDS011;12011;47.422;15.018;2023-04-24T11:32:50;0.05;;;0.05;;
23668;SDS011;12011;47.422;15.018;2023-04-24T11:35:30;0.04;;;0.04;;
23668;SDS011;12011;47.422;15.018;2023-04-24T11:38:11;0.03;;;0.03;;
23668;SDS011;12011;47.422;15.018;2023-04-24T11:40:42;0.06;;;0.06;;
23668;SDS011;12011;47.422;15.018;2023-04-24T11:43:17;0.06;;;0.06;;
23668;SDS011;12011;47.422;15.018;2023-04-24T11:45:48;0.05;;;0.05;;
23668;SDS011;12011;47.422;15.018;2023-04-24T11:48:27;0.04;;;0.04;;
23668;SDS011;12011;47.422;15.018;2023-04-24T11:51:01;0.06;;;0.05;;
23668;SDS011;12011;47.422;15.018;2023-04-24T11:53:32;0.11;;;0.11;;
23668;SDS011;12011;47.422;15.018;2023-04-24T11:56:05;0.03;;;0.03;;
23668;SDS011;12011;47.422;15.018;2023-04-24T11:58:41;0.05;;;0.05;;
23668;SDS011;12011;47.422;15.018;2023-04-24T12:01:16;0.10;;;0.09;;
23668;SDS011;12011;47.422;15.018;2023-04-24T12:03:49;0.02;;;0.02;;
23668;SDS011;12011;47.422;15.018;2023-04-24T12:06:30;0.14;;;0.14;;
23668;SDS011;12011;47.422;15.018;2023-04-24T12:09:05;0.08;;;0.08;;
23668;SDS011;12011;47.422;15.018;2023-04-24T12:11:37;0.05;;;0.05;;
23668;SDS011;12011;47.422;15.018;2023-04-24T12:14:25;0.10;;;0.10;;
23668;SDS011;12011;47.422;15.018;2023-04-24T12:16:54;0.02;;;0.02;;
23668;SDS011;12011;47.422;15.018;2023-04-24T12:19:25;0.15;;;0.15;;
23668;SDS011;12011;47.422;15.018;2023-04-24T12:21:58;0.10;;;0.09;;
23668;SDS011;12011;47.422;15.018;2023-04-24T12:24:29;0.03;;;0.03;;
23668;SDS011;12011;47.422;15.018;2023-04-24T12:26:59;0.09;;;0.08;;
23668;SDS011;12011;47.422;15.018;2023-04-24T12:29:32;0.18;;;0.17;;
23668;SDS011;12011;47.422;15.018;2023-04-24T12:32:01;0.13;;;0.13;;
23668;SDS011;12011;47.422;15.018;2023-04-24T12:34:31;0.08;;;0.08;;
23668;SDS011;12011;47.422;15.018;2023-04-24T12:37:09;0.14;;;0.14;;
23668;SDS011;12011;47.422;15.018;2023-04-24T12:39:39;0.05;;;0.05;;
23668;SDS011;12011;47.422;15.018;2023-04-24T12:42:27;0.10;;;0.10;;
23668;SDS011;12011;47.422;15.018;2023-04-24T12:45:02;0.11;;;0.11;;
23668;SDS011;12011;47.422;15.018;2023-04-24T12:47:37;0.12;;;0.11;;
23668;SDS011;12011;47.422;15.018;2023-04-24T12:50:09;0.13;;;0.13;;
23668;SDS011;12011;47.422;15.018;2023-04-24T12:52:42;0.18;;;0.17;;
23668;SDS011;12011;47.422;15.018;2023-04-24T12:55:12;0.11;;;0.11;;
23668;SDS011;12011;47.422;15.018;2023-04-24T12:57:42;0.12;;;0.12;;
23668;SDS011;12011;47.422;15.018;2023-04-24T13:00:15;0.13;;;0.12;;
23668;SDS011;12011;47.422;15.018;2023-04-24T13:02:45;0.10;;;0.10;;
23668;SDS011;12011;47.422;15.018;2023-04-24T13:05:15;0.09;;;0.08;;
23668;SDS011;12011;47.422;15.018;2023-04-24T13:07:45;0.10;;;0.10;;
23668;SDS011;12011;47.422;15.018;2023-04-24T13:10:14;0.07;;;0.07;;
23668;SDS011;12011;47.422;15.018;2023-04-24T13:12:44;0.08;;;0.07;;
23668;SDS011;12011;47.422;15.018;2023-04-24T13:15:17;0.10;;;0.10;;
23668;SDS011;12011;47.422;15.018;2023-04-24T13:17:46;0.09;;;0.09;;
23668;SDS011;12011;47.422;15.018;2023-04-24T13:20:16;0.03;;;0.03;;
23668;SDS011;12011;47.422;15.018;2023-04-24T13:22:46;0.10;;;0.10;;
23668;SDS011;12011;47.422;15.018;2023-04-24T13:25:16;0.11;;;0.11;;
23668;SDS011;12011;47.422;15.018;2023-04-24T13:27:46;0.19;;;0.19;;
23668;SDS011;12011;47.422;15.018;2023-04-24T13:30:19;0.03;;;0.03;;
23668;SDS011;12011;47.422;15.018;2023-04-24T13:32:48;0.09;;;0.09;;
23668;SDS011;12011;47.422;15.018;2023-04-24T13:35:18;0.11;;;0.11;;
23668;SDS011;12011;47.422;15.018;2023-04-24T13:37:47;0.07;;;0.06;;
23668;SDS011;12011;47.422;15.018;2023-04-24T13:40:17;0.15;;;0.15;;
23668;SDS011;12011;47.422;15.018;2023-04-24T13:42:47;0.07;;;0.07;;
23668;SDS011;12011;47.422;15.018;2023-04-24T13:45:19;0.06;;;0.06;;
23668;SDS011;12011;47.422;15.018;2023-04-24T13:47:49;0.09;;;0.09;;
23668;SDS011;12011;47.422;15.018;2023-04-24T13:50:19;0.06;;;0.06;;
23668;SDS011;12011;47.422;15.018;2023-04-24T13:52:49;0.09;;;0.09;;
23668;SDS011;12011;47.422;15.018;2023-04-24T13:55:19;0.08;;;0.08;;
23668;SDS011;12011;47.422;15.018;2023-04-24T13:57:49;0.07;;;0.07;;
23668;SDS011;12011;47.422;15.018;2023-04-24T14:00:23;0.09;;;0.09;;
23668;SDS011;12011;47.422;15.018;2023-04-24T14:02:53;0.09;;;0.08;;
23668;SDS011;12011;47.422;15.018;2023-04-24T14:05:23;0.16;;;0.16;;
23668;SDS011;12011;47.422;15.018;2023-04-24T14:07:52;0.05;;;0.05;;
23668;SDS011;12011;47.422;15.018;2023-04-24T14:10:22;0.07;;;0.07;;
23668;SDS011;12011;47.422;15.018;2023-04-24T14:12:52;0.09;;;0.09;;
23668;SDS011;12011;47.422;15.018;2023-04-24T14:15:25;0.13;;;0.12;;
23668;SDS011;12011;47.422;15.018;2023-04-24T14:17:54;0.16;;;0.15;;
23668;SDS011;12011;47.422;15.018;2023-04-24T14:20:24;0.14;;;0.14;;
23668;SDS011;12011;47.422;15.018;2023-04-24T14:22:53;0.09;;;0.09;;
23668;SDS011;12011;47.422;15.018;2023-04-24T14:25:24;0.17;;;0.17;;
23668;SDS011;12011;47.422;15.018;2023-04-24T14:27:54;0.47;;;0.46;;
23668;SDS011;12011;47.422;15.018;2023-04-24T14:30:26;0.67;;;0.65;;
23668;SDS011;12011;47.422;15.018;2023-04-24T14:32:56;0.32;;;0.31;;
23668;SDS011;12011;47.422;15.018;2023-04-24T14:35:25;0.16;;;0.16;;
23668;SDS011;12011;47.422;15.018;2023-04-24T14:37:56;0.40;;;0.39;;
23668;SDS011;12011;47.422;15.018;2023-04-24T14:40:26;0.21;;;0.20;;
23668;SDS011;12011;47.422;15.018;2023-04-24T14:42:56;0.24;;;0.23;;
23668;SDS011;12011;47.422;15.018;2023-04-24T14:45:28;0.20;;;0.19;;
23668;SDS011;12011;47.422;15.018;2023-04-24T14:47:58;0.24;;;0.23;;
23668;SDS011;12011;47.422;15.018;2023-04-24T14:50:28;0.27;;;0.26;;
23668;SDS011;12011;47.422;15.018;2023-04-24T14:52:57;0.28;;;0.27;;
23668;SDS011;12011;47.422;15.018;2023-04-24T14:55:27;0.37;;;0.36;;
23668;SDS011;12011;47.422;15.018;2023-04-24T14:57:58;0.38;;;0.37;;
23668;SDS011;12011;47.422;15.018;2023-04-24T15:00:31;0.37;;;0.36;;
23668;SDS011;12011;47.422;15.018;2023-04-24T15:03:00;0.40;;;0.40;;
23668;SDS011;12011;47.422;15.018;2023-04-24T15:05:30;0.44;;;0.44;;
23668;SDS011;12011;47.422;15.018;2023-04-24T15:08:00;0.41;;;0.40;;
23668;SDS011;12011;47.422;15.018;2023-04-24T15:10:29;0.46;;;0.46;;
23668;SDS011;12011;47.422;15.018;2023-04-24T15:12:59;0.50;;;0.50;;
23668;SDS011;12011;47.422;15.018;2023-04-24T15:15:31;0.52;;;0.52;;